Time;durP1;ratioP1;P1;durP2;ratioP2;P2;SDS_P1;SDS_P2;PMS_P1;PMS_P2;Temp;Humidity;BMP_temperature;BMP_pressure;BME280_temperature;BME280_humidity;BME280_pressure;Samples;Min_cycle;Max_cycle;Signal;HPM_P1;HPM_P2
2022/05/25 00:02:57;;;;;;;9.63;2.22;;;;;;;12.40;100.00;100211.66;6255599;28;20457;-93
2022/05/25 00:06:04;;;;;;;3.25;1.70;;;;;;;12.34;100.00;100209.63;6266653;28;20037;-93
2022/05/25 00:09:11;;;;;;;1.70;1.50;;;;;;;12.19;100.00;100207.44;6274789;28;20772;-93
2022/05/25 00:12:13;;;;;;;3.35;1.75;;;;;;;12.08;100.00;100207.63;6273085;28;20048;-93
2022/05/25 00:15:17;;;;;;;1.58;1.48;;;;;;;11.97;100.00;100200.78;6246023;28;20043;-92
2022/05/25 00:18:19;;;;;;;2.25;1.80;;;;;;;11.90;100.00;100206.66;6248292;28;20048;-92
2022/05/25 00:21:21;;;;;;;2.53;1.48;;;;;;;11.80;100.00;100215.25;6271079;28;20527;-92
2022/05/25 00:24:23;;;;;;;2.75;1.40;;;;;;;11.69;100.00;100215.38;6249790;28;20125;-93
2022/05/25 00:27:25;;;;;;;3.83;2.08;;;;;;;11.66;100.00;100217.44;6269249;28;20382;-93
2022/05/25 00:30:27;;;;;;;3.05;1.70;;;;;;;11.63;100.00;100221.94;6237852;28;20625;-93
2022/05/25 00:33:30;;;;;;;4.72;1.85;;;;;;;11.65;100.00;100226.97;6242328;28;20034;-93
2022/05/25 00:36:32;;;;;;;5.38;1.70;;;;;;;11.65;100.00;100224.38;6228416;28;20057;-93
2022/05/25 00:39:33;;;;;;;3.30;1.90;;;;;;;11.63;100.00;100223.72;6235623;28;20045;-93
2022/05/25 00:42:37;;;;;;;1.83;1.55;;;;;;;11.64;100.00;100235.72;6239181;28;20065;-93
2022/05/25 00:46:00;;;;;;;3.70;1.90;;;;;;;11.58;100.00;100223.31;6235312;28;20037;-93
2022/05/25 00:49:12;;;;;;;3.72;1.70;;;;;;;11.58;100.00;100233.66;6234867;28;20422;-93
2022/05/25 00:52:15;;;;;;;2.33;1.73;;;;;;;11.51;100.00;100238.56;6240769;28;20048;-93
2022/05/25 00:55:30;;;;;;;4.95;1.95;;;;;;;11.43;100.00;100234.06;6257642;28;20509;-93
2022/05/25 00:58:34;;;;;;;2.63;1.75;;;;;;;11.46;100.00;100245.13;6242903;28;20045;-93
2022/05/25 01:01:36;;;;;;;1.95;1.75;;;;;;;11.39;100.00;100253.41;6242569;28;20264;-92
2022/05/25 01:04:39;;;;;;;2.58;1.60;;;;;;;11.36;100.00;100253.69;6245414;28;20051;-93
2022/05/25 01:08:02;;;;;;;6.13;2.55;;;;;;;11.31;100.00;100249.84;6255223;28;20059;-93
2022/05/25 01:11:30;;;;;;;1.92;1.70;;;;;;;11.19;100.00;100252.53;6249700;28;20517;-93
2022/05/25 01:15:04;;;;;;;2.85;2.08;;;;;;;11.19;100.00;100256.91;6250944;28;20864;-92
2022/05/25 01:18:13;;;;;;;2.17;1.50;;;;;;;11.16;100.00;100259.75;6127442;28;20039;-93
2022/05/25 01:21:36;;;;;;;4.55;1.60;;;;;;;11.10;100.00;100261.09;6160487;28;20570;-92
2022/05/25 01:25:12;;;;;;;3.80;2.15;;;;;;;11.07;100.00;100265.72;6157023;28;20585;-93
2022/05/25 01:28:34;;;;;;;1.77;1.67;;;;;;;11.04;100.00;100266.81;6089288;29;20067;-93
2022/05/25 01:32:00;;;;;;;4.47;1.85;;;;;;;10.96;100.00;100270.03;6090009;29;20167;-92
2022/05/25 01:35:22;;;;;;;2.88;1.65;;;;;;;10.93;100.00;100259.97;6090165;29;20048;-93
2022/05/25 01:38:31;;;;;;;2.33;1.70;;;;;;;10.91;100.00;100254.09;6089724;29;20513;-93
2022/05/25 01:41:58;;;;;;;1.55;1.45;;;;;;;10.87;100.00;100263.03;6085048;29;20421;-93
2022/05/25 01:45:06;;;;;;;2.88;1.88;;;;;;;10.83;100.00;100259.09;6089669;29;20596;-93
2022/05/25 01:48:11;;;;;;;3.10;2.00;;;;;;;10.82;100.00;100264.38;6088242;29;20059;-93
2022/05/25 01:51:27;;;;;;;3.22;1.85;;;;;;;10.81;100.00;100266.16;6072207;29;20051;-93
2022/05/25 01:54:33;;;;;;;3.80;1.90;;;;;;;10.82;100.00;100267.78;6116651;28;20443;-93
2022/05/25 01:57:42;;;;;;;2.22;1.42;;;;;;;10.74;100.00;100265.84;6157764;28;20066;-93
2022/05/25 02:00:48;;;;;;;2.85;1.70;;;;;;;10.70;100.00;100267.06;6157556;28;20090;-93
2022/05/25 02:07:42;;;;;;;4.03;1.75;;;;;;;10.67;100.00;100264.72;6267145;28;20518;-93
2022/05/25 02:10:53;;;;;;;3.42;1.95;;;;;;;10.68;100.00;100265.53;6238217;28;20080;-93
2022/05/25 02:14:03;;;;;;;2.15;1.90;;;;;;;10.66;100.00;100267.47;6243248;28;20052;-92
2022/05/25 02:17:48;;;;;;;3.72;2.53;;;;;;;10.63;100.00;100267.69;6248340;28;20039;-93
2022/05/25 02:21:06;;;;;;;6.25;2.60;;;;;;;10.65;100.00;100268.38;6151881;28;20063;-92
2022/05/25 02:24:21;;;;;;;3.00;2.40;;;;;;;10.67;100.00;100272.50;6154411;28;20055;-93
2022/05/25 02:27:31;;;;;;;3.55;2.00;;;;;;;10.71;100.00;100268.72;6154147;28;20039;-93
2022/05/25 02:30:37;;;;;;;2.88;2.25;;;;;;;10.65;100.00;100261.44;6155213;28;20122;-92
2022/05/25 02:33:43;;;;;;;2.55;2.35;;;;;;;10.66;100.00;100264.88;6148517;28;20043;-92
2022/05/25 02:36:47;;;;;;;3.45;2.40;;;;;;;10.64;100.00;100269.34;6150742;28;20083;-93
2022/05/25 02:39:54;;;;;;;4.00;2.75;;;;;;;10.60;100.00;100271.34;6142492;28;20043;-93
2022/05/25 02:42:55;;;;;;;6.38;3.17;;;;;;;10.57;100.00;100276.78;6149423;28;20051;-92
2022/05/25 02:45:58;;;;;;;4.80;2.88;;;;;;;10.53;100.00;100276.25;6156011;28;20528;-94
2022/05/25 02:49:00;;;;;;;3.88;2.95;;;;;;;10.53;100.00;100284.00;6141725;28;20061;-93
2022/05/25 02:52:04;;;;;;;6.35;3.38;;;;;;;10.61;100.00;100292.88;6149556;28;20077;-93
2022/05/25 02:55:06;;;;;;;4.95;3.60;;;;;;;10.63;100.00;100296.97;6212192;28;20618;-93
2022/05/25 02:58:07;;;;;;;5.20;3.53;;;;;;;10.60;100.00;100297.25;6258788;28;20040;-93
2022/05/25 03:01:09;;;;;;;6.05;3.58;;;;;;;10.63;100.00;100303.94;6255591;28;20529;-92
2022/05/25 03:04:11;;;;;;;4.43;3.58;;;;;;;10.67;100.00;100308.72;6243455;28;20045;-93
2022/05/25 03:07:13;;;;;;;6.95;3.55;;;;;;;10.66;100.00;100311.47;6242318;28;20083;-93
2022/05/25 03:10:15;;;;;;;4.93;3.30;;;;;;;10.67;100.00;100319.09;6255079;28;20096;-93
2022/05/25 03:13:17;;;;;;;6.95;3.38;;;;;;;10.59;100.00;100320.69;6255740;28;20048;-93
2022/05/25 03:16:21;;;;;;;5.97;3.55;;;;;;;10.54;100.00;100329.63;6254344;28;20041;-92
2022/05/25 03:19:23;;;;;;;6.97;4.50;;;;;;;10.52;100.00;100322.94;6241666;28;20174;-93
2022/05/25 03:22:25;;;;;;;5.63;4.22;;;;;;;10.58;100.00;100319.84;6256151;28;20161;-92
2022/05/25 03:25:28;;;;;;;6.05;4.35;;;;;;;10.59;100.00;100323.25;6248727;28;20644;-91
2022/05/25 03:28:29;;;;;;;6.32;4.32;;;;;;;10.57;100.00;100326.78;6248959;28;20403;-91
2022/05/25 03:31:31;;;;;;;7.07;4.63;;;;;;;10.59;100.00;100328.44;6252080;28;20748;-91
2022/05/25 03:34:33;;;;;;;5.63;4.38;;;;;;;10.60;100.00;100328.28;6214914;28;20045;-92
2022/05/25 03:37:37;;;;;;;5.22;4.60;;;;;;;10.65;100.00;100340.88;6261751;28;20075;-92
2022/05/25 03:40:40;;;;;;;6.30;4.60;;;;;;;10.60;100.00;100338.66;6236368;28;20148;-93
2022/05/25 03:43:41;;;;;;;4.72;4.20;;;;;;;10.64;100.00;100339.25;6233307;28;20552;-93
2022/05/25 03:46:43;;;;;;;5.88;3.88;;;;;;;10.72;100.00;100348.00;6253879;28;20036;-93
2022/05/25 03:49:46;;;;;;;5.38;4.40;;;;;;;10.73;100.00;100348.81;6250245;28;20049;-92
2022/05/25 03:52:49;;;;;;;7.25;4.35;;;;;;;10.80;100.00;100338.78;6250706;28;20296;-93
2022/05/25 03:55:50;;;;;;;7.13;4.55;;;;;;;10.81;100.00;100345.59;6246069;28;20478;-93
2022/05/25 03:58:52;;;;;;;8.82;4.70;;;;;;;10.82;100.00;100352.44;6249876;28;20579;-93
2022/05/25 04:01:54;;;;;;;7.35;4.40;;;;;;;10.84;100.00;100351.34;6246932;28;20041;-93
2022/05/25 04:05:12;;;;;;;7.18;5.05;;;;;;;10.86;100.00;100354.63;6259369;28;20036;-92
2022/05/25 04:08:14;;;;;;;9.10;4.72;;;;;;;10.89;100.00;100341.44;6252403;28;20072;-93
2022/05/25 04:11:16;;;;;;;5.75;4.78;;;;;;;10.92;100.00;100350.72;6257168;28;20498;-92
2022/05/25 04:14:18;;;;;;;7.15;5.38;;;;;;;10.91;100.00;100347.31;6236563;28;20053;-92
2022/05/25 04:17:21;;;;;;;8.48;4.95;;;;;;;10.89;100.00;100353.56;6240957;28;20076;-93
2022/05/25 04:20:25;;;;;;;7.57;5.43;;;;;;;10.93;100.00;100348.00;6231597;28;20044;-93
2022/05/25 04:23:27;;;;;;;7.30;5.03;;;;;;;11.04;100.00;100346.28;6244633;28;20049;-92
2022/05/25 04:26:30;;;;;;;9.15;5.45;;;;;;;11.04;100.00;100352.28;6257860;28;20033;-92
2022/05/25 04:29:37;;;;;;;8.32;4.97;;;;;;;11.08;100.00;100350.25;6258679;28;20491;-91
2022/05/25 04:32:39;;;;;;;8.45;6.13;;;;;;;11.07;100.00;100352.00;6230761;28;20521;-93
2022/05/25 04:35:43;;;;;;;7.68;5.38;;;;;;;11.08;100.00;100358.00;6257629;28;20637;-92
2022/05/25 04:38:44;;;;;;;7.72;5.72;;;;;;;11.16;100.00;100355.63;6255235;28;20042;-92
2022/05/25 04:41:46;;;;;;;7.90;5.65;;;;;;;11.17;100.00;100358.06;6252165;28;20344;-93
2022/05/25 04:44:48;;;;;;;9.73;5.32;;;;;;;11.23;100.00;100359.34;6235064;28;20516;-92
2022/05/25 04:47:50;;;;;;;7.35;5.72;;;;;;;11.35;100.00;100366.06;6243474;28;20037;-93
2022/05/25 04:50:56;;;;;;;10.10;5.97;;;;;;;11.46;100.00;100370.34;6253126;28;20056;-92
2022/05/25 04:53:58;;;;;;;8.73;6.22;;;;;;;11.53;100.00;100361.09;6261960;28;20128;-93
2022/05/25 05:00:20;;;;;;;8.55;5.95;;;;;;;11.57;100.00;100367.63;6251683;28;20045;-92
2022/05/25 05:03:24;;;;;;;9.50;6.47;;;;;;;11.68;100.00;100374.50;6238763;28;20550;-92
2022/05/25 05:06:26;;;;;;;8.48;6.43;;;;;;;11.74;100.00;100373.16;6261570;28;20534;-92
2022/05/25 05:09:33;;;;;;;7.75;5.50;;;;;;;11.84;100.00;100377.41;6234174;28;20132;-92
2022/05/25 05:12:34;;;;;;;10.63;5.90;;;;;;;11.82;100.00;100381.88;6258657;28;20183;-92
2022/05/25 05:15:40;;;;;;;10.23;6.60;;;;;;;11.78;100.00;100388.31;6254147;28;20409;-92
2022/05/25 05:18:43;;;;;;;8.85;6.40;;;;;;;11.76;100.00;100384.22;6261552;28;20057;-92
2022/05/25 05:21:59;;;;;;;11.70;7.03;;;;;;;11.82;100.00;100383.66;6239787;28;20057;-92
2022/05/25 05:25:01;;;;;;;9.50;6.80;;;;;;;11.83;100.00;100385.34;6259820;28;20044;-92
2022/05/25 05:28:14;;;;;;;11.23;6.70;;;;;;;11.80;100.00;100383.81;6251182;28;20037;-92
2022/05/25 05:31:16;;;;;;;8.85;6.15;;;;;;;11.85;100.00;100380.84;6246850;28;20045;-91
2022/05/25 05:34:18;;;;;;;12.05;6.80;;;;;;;11.90;100.00;100386.47;6256526;28;20071;-93
2022/05/25 05:37:26;;;;;;;8.02;6.75;;;;;;;11.93;100.00;100393.16;6258553;28;20037;-92
2022/05/25 05:40:29;;;;;;;10.65;7.00;;;;;;;11.95;100.00;100393.81;6223658;28;20049;-92
2022/05/25 05:43:31;;;;;;;8.70;6.38;;;;;;;12.00;100.00;100405.47;6238706;28;20149;-93
2022/05/25 05:46:36;;;;;;;9.30;6.38;;;;;;;12.00;100.00;100395.09;6230470;28;20033;-92
2022/05/25 05:49:39;;;;;;;10.65;6.82;;;;;;;12.18;100.00;100402.22;6247510;28;20048;-92
2022/05/25 05:52:42;;;;;;;10.65;6.45;;;;;;;12.17;100.00;100403.16;6236025;28;20049;-93
2022/05/25 05:55:46;;;;;;;8.63;6.50;;;;;;;12.12;100.00;100408.75;6236208;28;20099;-93
2022/05/25 05:58:48;;;;;;;8.80;6.72;;;;;;;12.14;100.00;100409.44;6236708;28;20053;-93
2022/05/25 06:01:50;;;;;;;10.73;6.93;;;;;;;12.23;100.00;100418.22;6254732;28;20044;-93
2022/05/25 06:04:52;;;;;;;9.85;6.55;;;;;;;12.22;100.00;100417.41;6255706;28;20052;-92
2022/05/25 06:07:54;;;;;;;9.50;6.40;;;;;;;12.27;100.00;100419.56;6252290;28;20043;-92
2022/05/25 06:10:57;;;;;;;10.18;6.35;;;;;;;12.33;100.00;100423.41;6258750;28;20048;-92
2022/05/25 06:13:59;;;;;;;9.55;6.32;;;;;;;12.45;100.00;100423.16;6255291;28;20052;-93
2022/05/25 06:20:21;;;;;;;9.88;6.68;;;;;;;12.53;100.00;100425.06;6257861;28;20504;-93
2022/05/25 06:23:24;;;;;;;9.82;6.80;;;;;;;12.75;100.00;100417.97;6243397;28;20456;-93
2022/05/25 06:26:30;;;;;;;9.30;6.05;;;;;;;12.77;100.00;100416.03;6251200;28;20049;-92
2022/05/25 06:29:32;;;;;;;11.27;8.25;;;;;;;13.01;100.00;100424.19;6234167;28;20054;-92
2022/05/25 06:32:36;;;;;;;9.65;6.82;;;;;;;13.21;100.00;100426.75;6248697;28;20037;-92
2022/05/25 06:35:39;;;;;;;9.57;7.00;;;;;;;13.34;100.00;100435.09;6259879;28;20041;-92
2022/05/25 06:38:41;;;;;;;11.45;6.45;;;;;;;13.43;100.00;100431.66;6253334;28;20048;-93
2022/05/25 06:41:43;;;;;;;10.88;7.07;;;;;;;13.53;100.00;100436.81;6241068;28;20048;-92
2022/05/25 06:44:44;;;;;;;10.57;6.25;;;;;;;13.64;100.00;100443.63;6247873;28;20071;-93
2022/05/25 06:47:46;;;;;;;9.45;5.72;;;;;;;13.69;100.00;100436.19;6259840;28;20124;-93
2022/05/25 06:50:48;;;;;;;6.63;5.20;;;;;;;13.79;100.00;100439.59;6259097;28;20179;-92
2022/05/25 06:53:51;;;;;;;8.98;5.40;;;;;;;13.93;100.00;100435.69;6257351;28;20049;-93
2022/05/25 06:56:52;;;;;;;8.65;5.43;;;;;;;13.92;100.00;100442.69;6258066;28;20049;-93
2022/05/25 07:00:03;;;;;;;7.90;5.35;;;;;;;14.05;100.00;100449.31;6255839;28;20581;-92
2022/05/25 07:03:06;;;;;;;11.07;5.20;;;;;;;14.04;100.00;100456.31;6247843;28;20057;-92
2022/05/25 07:06:11;;;;;;;6.38;4.68;;;;;;;14.11;100.00;100448.72;6258413;28;20047;-93
2022/05/25 07:09:13;;;;;;;5.82;4.30;;;;;;;14.07;100.00;100452.59;6255501;28;20041;-93
2022/05/25 07:12:15;;;;;;;7.03;4.70;;;;;;;14.05;100.00;100455.34;6250989;28;20045;-92
2022/05/25 07:15:17;;;;;;;9.18;4.80;;;;;;;14.09;100.00;100451.50;6256514;28;20060;-92
2022/05/25 07:18:20;;;;;;;5.68;4.15;;;;;;;14.22;100.00;100462.38;6229781;28;20479;-93
2022/05/25 07:21:25;;;;;;;4.03;3.25;;;;;;;14.24;100.00;100475.25;6242682;28;20041;-91
2022/05/25 07:24:27;;;;;;;5.38;3.05;;;;;;;14.34;100.00;100464.78;6259111;28;20477;-92
2022/05/25 07:27:29;;;;;;;3.10;2.45;;;;;;;14.41;100.00;100471.03;6247031;28;20041;-91
2022/05/25 07:30:31;;;;;;;3.63;1.90;;;;;;;14.33;100.00;100482.16;6258711;28;20402;-89
2022/05/25 07:33:35;;;;;;;2.97;2.30;;;;;;;14.35;97.38;100485.44;6258922;28;20483;-91
2022/05/25 07:36:40;;;;;;;2.20;2.00;;;;;;;14.31;99.27;100476.31;6253576;28;20124;-93
2022/05/25 07:39:49;;;;;;;3.33;2.17;;;;;;;14.29;98.22;100485.22;6232177;28;20505;-91
2022/05/25 07:42:56;;;;;;;5.50;2.60;;;;;;;14.36;98.13;100479.28;6244180;28;20532;-91
2022/05/25 07:45:58;;;;;;;3.35;2.80;;;;;;;14.47;95.54;100490.47;6233640;28;20041;-90
2022/05/25 07:49:01;;;;;;;2.88;2.20;;;;;;;14.72;96.35;100484.53;6239783;28;20052;-92
2022/05/25 07:52:03;;;;;;;2.97;2.10;;;;;;;14.95;92.18;100484.06;6260685;28;20041;-92
2022/05/25 07:55:08;;;;;;;3.13;2.30;;;;;;;14.99;93.20;100480.22;6268759;28;20040;-90
2022/05/25 07:58:09;;;;;;;2.35;2.05;;;;;;;14.99;92.46;100483.63;6254474;28;20106;-92
2022/05/25 08:01:15;;;;;;;3.80;2.67;;;;;;;14.97;90.32;100482.16;6259654;28;20045;-90
2022/05/25 08:07:51;;;;;;;2.63;2.40;;;;;;;15.13;92.61;100491.88;6187521;28;20575;-91
2022/05/25 08:10:56;;;;;;;3.22;2.70;;;;;;;15.32;91.92;100485.66;6170467;28;20519;-91
2022/05/25 08:13:58;;;;;;;2.53;2.28;;;;;;;15.42;91.30;100479.34;6196567;28;20092;-93
2022/05/25 08:17:00;;;;;;;2.70;2.00;;;;;;;15.65;88.49;100482.28;6195172;28;20043;-93
2022/05/25 08:20:04;;;;;;;4.47;2.40;;;;;;;15.73;87.73;100478.94;6191268;28;20038;-93
2022/05/25 08:23:08;;;;;;;2.08;1.80;;;;;;;15.61;86.60;100480.94;6175805;28;20557;-93
2022/05/25 08:26:10;;;;;;;2.13;1.90;;;;;;;15.49;86.15;100487.41;6184723;28;20041;-92
2022/05/25 08:29:12;;;;;;;4.40;1.88;;;;;;;15.55;85.00;100485.97;6189384;28;20056;-92
2022/05/25 08:32:14;;;;;;;2.80;1.80;;;;;;;15.46;83.52;100493.75;6177811;28;20073;-92
2022/05/25 08:35:16;;;;;;;2.60;1.83;;;;;;;15.60;86.40;100492.38;6202385;28;20826;-92
2022/05/25 08:38:21;;;;;;;2.33;1.80;;;;;;;15.82;85.18;100487.59;6204353;28;20169;-92
2022/05/25 08:41:34;;;;;;;5.22;1.63;;;;;;;16.25;84.48;100484.03;6185193;28;20049;-94
2022/05/25 08:44:36;;;;;;;3.65;1.92;;;;;;;16.39;79.29;100485.19;6243041;28;20060;-93
2022/05/25 08:47:46;;;;;;;2.25;1.98;;;;;;;16.48;78.53;100479.00;6263549;28;20044;-92
2022/05/25 08:50:57;;;;;;;2.80;2.00;;;;;;;16.70;77.00;100484.59;6264629;28;20060;-94
2022/05/25 08:54:05;;;;;;;2.63;1.90;;;;;;;16.96;79.62;100476.59;6262426;28;20048;-92
2022/05/25 08:57:17;;;;;;;2.55;1.85;;;;;;;17.14;75.31;100484.28;6268470;28;20040;-93
2022/05/25 09:00:19;;;;;;;3.05;2.30;;;;;;;17.31;74.21;100485.88;6263165;28;20074;-93
2022/05/25 09:03:45;;;;;;;3.20;2.30;;;;;;;17.51;72.44;100477.69;6259963;28;20033;-94
2022/05/25 09:07:10;;;;;;;4.53;2.55;;;;;;;17.79;71.83;100484.16;6258389;28;20052;-92
2022/05/25 09:10:13;;;;;;;3.42;2.65;;;;;;;17.60;72.09;100485.34;6257754;28;20045;-92
2022/05/25 09:13:25;;;;;;;4.40;2.80;;;;;;;17.07;75.95;100491.97;6260943;28;20048;-93
2022/05/25 09:16:30;;;;;;;3.95;2.88;;;;;;;16.58;80.39;100481.47;6259106;28;20075;-93
2022/05/25 09:19:37;;;;;;;4.13;3.58;;;;;;;16.52;80.92;100482.09;6274930;28;20098;-92
2022/05/25 09:22:41;;;;;;;3.72;3.33;;;;;;;16.38;78.89;100480.94;6262991;28;20041;-92
2022/05/25 09:25:44;;;;;;;4.80;3.40;;;;;;;16.23;80.37;100478.13;6259295;28;20164;-92
2022/05/25 09:28:49;;;;;;;6.25;3.30;;;;;;;15.93;79.84;100476.88;6253445;28;20040;-92
2022/05/25 09:32:27;;;;;;;4.10;2.97;;;;;;;15.70;84.75;100472.22;6255603;28;20037;-92
2022/05/25 09:35:33;;;;;;;5.30;2.80;;;;;;;15.73;83.74;100468.47;6239201;28;20388;-93
2022/05/25 09:38:44;;;;;;;2.70;2.50;;;;;;;16.03;81.36;100472.34;6248957;28;20632;-93
2022/05/25 09:41:46;;;;;;;;;;;;;;;16.65;77.66;100474.63;6255787;28;20517;-94
2022/05/25 09:44:54;;;;;;;4.50;2.70;;;;;;;16.88;74.58;100477.44;6263977;28;19931;-94
2022/05/25 09:47:56;;;;;;;2.70;2.50;;;;;;;17.01;71.93;100479.53;6270887;28;20478;-92
2022/05/25 09:51:26;;;;;;;4.88;2.53;;;;;;;17.49;65.44;100472.63;6272296;28;20056;-93
2022/05/25 09:54:46;;;;;;;3.45;2.70;;;;;;;17.47;64.57;100469.34;6263884;28;20033;-93
2022/05/25 09:58:00;;;;;;;2.70;2.50;;;;;;;17.27;68.24;100474.13;6244184;28;20308;-92
2022/05/25 10:01:26;;;;;;;3.13;2.60;;;;;;;17.29;72.47;100474.78;6262343;28;20037;-93
2022/05/25 10:04:52;;;;;;;4.70;2.85;;;;;;;17.59;67.14;100475.88;6260932;28;20490;-92
2022/05/25 10:08:20;;;;;;;3.20;2.50;;;;;;;17.75;67.62;100461.91;6257538;28;20116;-92
2022/05/25 10:11:28;;;;;;;3.10;2.80;;;;;;;18.04;64.20;100465.75;6245032;28;20562;-93
2022/05/25 10:14:35;;;;;;;3.42;2.63;;;;;;;18.59;63.09;100467.38;6250033;28;20481;-92
2022/05/25 10:17:40;;;;;;;3.33;2.60;;;;;;;19.04;58.37;100465.72;6244223;28;20064;-92
2022/05/25 10:20:42;;;;;;;2.78;2.58;;;;;;;19.23;57.64;100474.06;6239800;28;20050;-93
2022/05/25 10:23:44;;;;;;;4.35;2.58;;;;;;;19.08;56.54;100469.63;6261982;28;20505;-93
2022/05/25 10:26:53;;;;;;;4.50;2.35;;;;;;;18.67;61.63;100476.97;6261069;28;20049;-92
2022/05/25 10:37:08;;;;;;;2.92;2.65;;;;;;;18.90;60.55;100477.00;6266566;28;20453;-92
2022/05/25 10:40:10;;;;;;;3.25;2.85;;;;;;;19.11;57.73;100477.13;6252779;28;20049;-90
2022/05/25 10:43:22;;;;;;;2.95;2.42;;;;;;;19.15;56.56;100462.69;6242894;28;20053;-92
2022/05/25 10:46:24;;;;;;;5.57;2.35;;;;;;;19.53;53.28;100459.97;6247265;28;20120;-91
2022/05/25 10:49:34;;;;;;;2.83;2.40;;;;;;;19.79;55.83;100458.72;6255579;28;20037;-92
2022/05/25 10:52:42;;;;;;;2.20;2.00;;;;;;;19.93;52.94;100452.63;6248858;28;20045;-93
2022/05/25 10:55:48;;;;;;;1.38;1.30;;;;;;;19.98;53.60;100446.84;6237564;28;20056;-93
2022/05/25 10:59:05;;;;;;;2.20;1.90;;;;;;;20.30;52.54;100458.72;6261673;28;20195;-95
2022/05/25 11:02:21;;;;;;;1.92;1.70;;;;;;;20.70;50.91;100459.13;6256495;28;20060;-93
2022/05/25 11:05:30;;;;;;;2.08;1.50;;;;;;;20.40;52.62;100461.84;6258017;28;20207;-95
2022/05/25 11:09:06;;;;;;;1.63;1.35;;;;;;;20.33;51.31;100458.31;6254601;28;20084;-93
2022/05/25 11:12:31;;;;;;;1.27;1.02;;;;;;;20.44;47.94;100465.69;6254490;28;20471;-95
2022/05/25 11:16:11;;;;;;;1.42;1.33;;;;;;;20.05;51.10;100462.66;6245110;28;20052;-96
2022/05/25 11:19:39;;;;;;;1.42;1.33;;;;;;;20.08;51.86;100455.22;6250646;28;20078;-94
2022/05/25 11:23:18;;;;;;;1.58;1.35;;;;;;;20.21;50.70;100459.81;6248945;28;20183;-96
2022/05/25 11:26:52;;;;;;;1.77;1.40;;;;;;;20.04;52.96;100455.78;6258099;28;20697;-94
2022/05/25 11:30:18;;;;;;;3.13;1.40;;;;;;;20.13;50.31;100455.50;6259923;28;20056;-92
2022/05/25 11:33:23;;;;;;;1.30;1.20;;;;;;;20.13;50.55;100458.13;6259761;28;20076;-95
2022/05/25 11:37:00;;;;;;;2.50;2.22;;;;;;;20.13;49.22;100458.13;6266733;28;20041;-96
2022/05/25 11:40:11;;;;;;;3.58;1.30;;;;;;;20.47;47.56;100466.34;6250384;28;20038;-95
2022/05/25 11:43:21;;;;;;;2.97;1.60;;;;;;;20.61;48.00;100458.41;6249643;28;20072;-94
2022/05/25 11:46:35;;;;;;;3.20;1.33;;;;;;;20.60;47.23;100461.25;6259573;28;20569;-95
2022/05/25 11:50:28;;;;;;;3.15;1.60;;;;;;;20.41;49.24;100466.09;6226116;28;20190;-95
2022/05/25 11:54:07;;;;;;;2.08;1.45;;;;;;;20.46;48.62;100468.16;6192063;28;20050;-95
2022/05/25 11:57:39;;;;;;;2.05;1.40;;;;;;;20.77;49.15;100461.78;6207051;28;20096;-93
2022/05/25 12:00:50;;;;;;;2.47;1.40;;;;;;;20.99;49.39;100455.50;6137142;28;20059;-95
2022/05/25 12:04:18;;;;;;;1.55;1.42;;;;;;;20.85;48.70;100466.94;6135907;28;20063;-94
2022/05/25 12:07:58;;;;;;;4.78;1.60;;;;;;;21.13;50.67;100466.13;6142157;28;20497;-95
2022/05/25 12:11:17;;;;;;;2.92;1.65;;;;;;;21.00;47.82;100472.09;6135297;28;20055;-92
2022/05/25 12:14:36;;;;;;;1.52;1.42;;;;;;;20.47;50.23;100466.34;6139263;28;20493;-92
2022/05/25 12:18:02;;;;;;;2.65;1.50;;;;;;;20.21;50.37;100459.81;6149034;28;20506;-94
2022/05/25 12:21:13;;;;;;;3.90;1.50;;;;;;;20.27;52.00;100466.13;6158906;28;20046;-92
2022/05/25 12:24:19;;;;;;;2.08;1.33;;;;;;;20.39;49.74;100465.44;6153938;28;20125;-95
2022/05/25 12:27:25;;;;;;;2.05;1.67;;;;;;;20.73;51.08;100464.00;6143321;28;20054;-95
2022/05/25 12:30:41;;;;;;;1.50;1.40;;;;;;;21.22;50.54;100465.78;6140745;28;20425;-94
2022/05/25 12:33:45;;;;;;;1.10;1.10;;;;;;;21.71;45.93;100464.06;6160246;28;20047;-92
2022/05/25 12:36:47;;;;;;;2.55;1.50;;;;;;;21.90;45.74;100457.25;6188186;28;20072;-95
2022/05/25 12:39:49;;;;;;;1.20;1.10;;;;;;;21.97;44.46;100455.44;6244131;28;20037;-95
2022/05/25 12:42:52;;;;;;;2.35;1.50;;;;;;;22.11;44.84;100459.75;6256315;28;20496;-95
2022/05/25 12:49:30;;;;;;;3.45;1.13;;;;;;;22.56;44.49;100462.72;6257754;28;20395;-95
2022/05/25 12:52:32;;;;;;;2.90;1.00;;;;;;;22.65;44.98;100449.31;6248312;28;20072;-95
2022/05/25 12:55:34;;;;;;;1.65;1.00;;;;;;;22.39;43.25;100450.94;6252777;28;20048;-95
2022/05/25 12:59:00;;;;;;;0.93;0.90;;;;;;;22.49;41.51;100456.63;6243700;28;20048;-95
2022/05/25 13:02:27;;;;;;;1.10;1.00;;;;;;;22.30;42.56;100460.84;6234796;28;20041;-96
2022/05/25 13:06:14;;;;;;;1.88;0.90;;;;;;;22.12;41.78;100458.75;6246518;28;20052;-95
2022/05/25 13:09:45;;;;;;;2.60;0.60;;;;;;;22.52;41.30;100452.75;6138175;28;20161;-96
2022/05/25 13:12:51;;;;;;;0.50;0.50;;;;;;;22.74;39.90;100451.56;6141283;29;20055;-95
2022/05/25 13:15:53;;;;;;;0.70;0.60;;;;;;;22.43;39.96;100454.75;6141041;28;20414;-96
2022/05/25 13:18:57;;;;;;;0.65;0.55;;;;;;;22.36;40.39;100457.41;6125165;29;20039;-94
2022/05/25 13:22:14;;;;;;;0.82;0.80;;;;;;;21.87;39.80;100447.09;6124473;29;20054;-93
2022/05/25 13:25:55;;;;;;;1.55;0.95;;;;;;;21.89;44.06;100455.63;6136435;29;20055;-96
2022/05/25 13:29:08;;;;;;;2.70;0.80;;;;;;;21.89;43.10;100453.00;6140453;28;20054;-92
2022/05/25 13:32:32;;;;;;;1.80;0.60;;;;;;;22.28;41.68;100467.31;6122690;28;20063;-94
2022/05/25 13:35:39;;;;;;;2.78;0.60;;;;;;;22.31;42.98;100454.56;6144547;28;20043;-94
2022/05/25 13:38:59;;;;;;;1.38;0.70;;;;;;;22.14;43.11;100445.38;6152920;28;20475;-94
2022/05/25 13:42:15;;;;;;;0.70;0.60;;;;;;;22.19;42.82;100445.59;6243081;28;20060;-94
2022/05/25 13:45:25;;;;;;;0.98;0.50;;;;;;;21.88;43.69;100436.34;6247933;28;20083;-95
2022/05/25 13:48:27;;;;;;;2.60;0.73;;;;;;;21.52;45.22;100441.09;6259586;28;20770;-95
2022/05/25 13:51:29;;;;;;;1.38;0.68;;;;;;;20.89;44.99;100444.47;6236075;28;20135;-95
2022/05/25 13:54:36;;;;;;;1.90;0.60;;;;;;;20.48;46.48;100454.84;6254595;28;20033;-96
2022/05/25 13:57:49;;;;;;;2.92;0.70;;;;;;;20.10;47.24;100447.13;6257809;28;20048;-94
2022/05/25 14:01:05;;;;;;;1.88;0.73;;;;;;;19.80;50.74;100452.50;6240406;28;20705;-94
2022/05/25 14:04:23;;;;;;;1.58;0.70;;;;;;;19.67;50.75;100449.63;6239663;28;20072;-95
2022/05/25 14:07:32;;;;;;;1.00;0.60;;;;;;;19.71;51.11;100449.13;6254325;28;20037;-95
2022/05/25 14:13:55;;;;;;;0.98;0.70;;;;;;;20.07;50.53;100447.53;6255667;28;20717;-96
2022/05/25 14:17:25;;;;;;;1.30;0.70;;;;;;;20.31;49.30;100446.38;6250006;28;20050;-96
2022/05/25 14:20:27;;;;;;;1.63;0.70;;;;;;;20.59;49.36;100443.81;6262205;28;20056;-94
2022/05/25 14:23:31;;;;;;;1.15;0.70;;;;;;;20.97;47.31;100444.34;6267471;28;20048;-95
2022/05/25 14:26:36;;;;;;;1.67;0.73;;;;;;;21.72;45.42;100436.72;6262513;28;20649;-95
2022/05/25 14:29:39;;;;;;;1.90;0.70;;;;;;;22.58;44.83;100434.31;6249703;28;20045;-95
2022/05/25 14:32:46;;;;;;;1.00;0.75;;;;;;;23.13;41.92;100422.69;6263826;28;20056;-95
2022/05/25 14:35:55;;;;;;;2.47;0.73;;;;;;;23.41;40.23;100420.59;6255018;28;20557;-95
2022/05/25 14:39:00;;;;;;;0.95;0.80;;;;;;;23.58;39.65;100415.69;6243230;28;20080;-94
2022/05/25 14:42:11;;;;;;;2.63;0.75;;;;;;;23.34;42.02;100406.59;6246806;28;20041;-95
2022/05/25 14:45:15;;;;;;;1.83;0.70;;;;;;;23.33;40.72;100407.63;6244178;28;20218;-95
2022/05/25 14:48:20;;;;;;;1.17;0.60;;;;;;;23.49;36.45;100416.91;6263514;28;20053;-96
2022/05/25 14:51:28;;;;;;;1.40;0.57;;;;;;;23.28;39.71;100431.22;6264024;28;20049;-92
2022/05/25 14:54:30;;;;;;;1.30;0.70;;;;;;;23.22;40.15;100422.28;6224316;28;20115;-95
2022/05/25 14:57:33;;;;;;;2.50;0.77;;;;;;;22.80;39.59;100421.69;6244759;28;20042;-96
2022/05/25 15:00:56;;;;;;;0.88;0.50;;;;;;;22.76;40.26;100417.06;6250186;28;20494;-94
2022/05/25 15:04:06;;;;;;;2.00;0.70;;;;;;;23.30;38.66;100417.78;6248431;28;20087;-95